createdAt,value
2019-01-02T00:00:23.881Z,3.30
2019-01-02T00:02:52.228Z,3.30
2019-01-02T00:05:20.780Z,3.30
2019-01-02T00:07:49.062Z,3.20
2019-01-02T00:10:17.626Z,3.20
2019-01-02T00:12:45.911Z,3.20
2019-01-02T00:15:14.436Z,3.20
2019-01-02T00:17:42.757Z,3.20
2019-01-02T00:20:14.717Z,3.20
2019-01-02T00:22:43.025Z,3.30
2019-01-02T00:25:11.424Z,3.20
2019-01-02T00:27:39.669Z,3.20
2019-01-02T00:30:09.363Z,3.30
2019-01-02T00:32:37.940Z,3.30
2019-01-02T00:35:07.739Z,3.30
2019-01-02T00:37:36.267Z,3.30
2019-01-02T00:40:10.051Z,3.30
2019-01-02T00:42:38.650Z,3.30
2019-01-02T00:45:07.908Z,3.30
2019-01-02T00:47:36.575Z,3.30
2019-01-02T00:50:08.386Z,3.30
2019-01-02T00:52:36.995Z,3.30
2019-01-02T00:55:05.879Z,3.30
2019-01-02T00:57:35.447Z,3.40
2019-01-02T01:00:06.856Z,3.40
2019-01-02T01:02:35.490Z,3.30
2019-01-02T01:05:03.994Z,3.40
2019-01-02T01:07:32.517Z,3.40
2019-01-02T01:10:00.779Z,3.40
2019-01-02T01:12:29.518Z,3.40
2019-01-02T01:14:57.790Z,3.40
2019-01-02T01:17:26.403Z,3.50
2019-01-02T01:19:54.650Z,3.40
2019-01-02T01:22:23.277Z,3.40
2019-01-02T01:24:51.536Z,3.40
2019-01-02T01:27:19.777Z,3.50
2019-01-02T01:29:48.055Z,3.50
2019-01-02T01:32:16.322Z,3.50
2019-01-02T01:34:44.852Z,3.50
2019-01-02T01:37:13.125Z,3.50
2019-01-02T01:39:41.390Z,3.50
2019-01-02T01:42:10.007Z,3.50
2019-01-02T01:44:38.263Z,3.50
2019-01-02T01:47:06.900Z,3.50
2019-01-02T01:49:35.135Z,3.60
2019-01-02T01:52:03.407Z,3.50
2019-01-02T01:54:32.011Z,3.50
2019-01-02T01:57:00.273Z,3.50
2019-01-02T01:59:28.899Z,3.60
2019-01-02T02:01:57.165Z,3.50
2019-01-02T02:04:25.469Z,3.50
2019-01-02T02:06:54.108Z,3.50
2019-01-02T02:09:22.344Z,3.50
2019-01-02T02:11:51.050Z,3.50
2019-01-02T02:14:19.369Z,3.50
2019-01-02T02:16:47.627Z,3.50
2019-01-02T02:19:16.245Z,3.50
2019-01-02T02:21:44.509Z,3.40
2019-01-02T02:24:12.789Z,3.40
2019-01-02T02:26:41.119Z,3.30
2019-01-02T02:29:09.369Z,3.40
2019-01-02T02:31:37.992Z,3.30
2019-01-02T02:34:06.233Z,3.30
2019-01-02T02:36:34.864Z,3.30
2019-01-02T02:39:04.277Z,3.20
2019-01-02T02:41:32.792Z,3.20
2019-01-02T02:44:01.442Z,3.10
2019-01-02T02:46:29.961Z,3.10
2019-01-02T02:48:58.223Z,3.10
2019-01-02T02:51:26.950Z,3.10
2019-01-02T02:53:55.495Z,3.10
2019-01-02T02:56:24.121Z,3.00
2019-01-02T02:58:52.649Z,3.00
2019-01-02T03:01:21.269Z,3.00
2019-01-02T03:03:49.887Z,2.90
2019-01-02T03:06:18.519Z,2.90
2019-01-02T03:08:47.156Z,2.90
2019-01-02T03:11:15.391Z,2.90
2019-01-02T03:13:43.919Z,2.90
2019-01-02T03:16:12.449Z,2.90
2019-01-02T03:18:41.181Z,2.80
2019-01-02T03:21:09.408Z,2.80
2019-01-02T03:23:37.666Z,2.80
2019-01-02T03:26:05.917Z,2.70
2019-01-02T03:28:34.452Z,2.80
2019-01-02T03:31:03.181Z,2.70
2019-01-02T03:33:31.708Z,2.80
2019-01-02T03:35:59.959Z,2.80
2019-01-02T03:38:28.215Z,2.80
2019-01-02T03:40:56.462Z,2.90
2019-01-02T03:43:24.729Z,2.90
2019-01-02T03:45:52.967Z,2.90
2019-01-02T03:48:21.394Z,3.00
2019-01-02T03:50:49.708Z,3.00
2019-01-02T03:53:17.991Z,3.00
2019-01-02T03:55:46.242Z,2.90
2019-01-02T03:58:14.493Z,2.90
2019-01-02T04:00:42.744Z,2.90
2019-01-02T04:03:10.986Z,2.90
2019-01-02T04:05:39.245Z,2.90
2019-01-02T04:08:07.564Z,2.80
2019-01-02T04:10:35.843Z,2.80
2019-01-02T04:13:04.102Z,2.80
2019-01-02T04:15:32.353Z,2.80
2019-01-02T04:18:00.601Z,2.70
2019-01-02T04:20:28.843Z,2.80
2019-01-02T04:22:57.087Z,2.90
2019-01-02T04:25:25.336Z,2.80
2019-01-02T04:27:53.605Z,2.80
2019-01-02T04:30:21.914Z,2.80
2019-01-02T04:32:50.155Z,2.90
2019-01-02T04:35:18.408Z,3.00
2019-01-02T04:37:46.654Z,3.00
2019-01-02T04:40:15.938Z,3.00
2019-01-02T04:42:44.186Z,3.00
2019-01-02T04:45:12.447Z,3.00
2019-01-02T04:47:40.765Z,2.90
2019-01-02T04:50:11.163Z,2.90
2019-01-02T04:52:39.400Z,3.00
2019-01-02T04:55:07.678Z,3.00
2019-01-02T04:57:36.474Z,3.00
2019-01-02T05:00:10.536Z,3.00
2019-01-02T05:02:38.817Z,3.00
2019-01-02T05:05:07.653Z,3.00
2019-01-02T05:07:35.895Z,3.00
2019-01-02T05:10:06.595Z,3.00
2019-01-02T05:12:34.857Z,3.00
2019-01-02T05:15:03.096Z,3.00
2019-01-02T05:17:31.359Z,3.00
2019-01-02T05:19:59.600Z,3.00
2019-01-02T05:22:27.860Z,3.10
2019-01-02T05:24:56.127Z,3.10
2019-01-02T05:27:24.462Z,3.10
2019-01-02T05:29:52.753Z,3.00
2019-01-02T05:32:21.500Z,3.10
2019-01-02T05:34:49.746Z,3.10
2019-01-02T05:37:17.989Z,3.10
2019-01-02T05:39:46.237Z,3.10
2019-01-02T05:42:14.497Z,3.10
2019-01-02T05:44:42.754Z,3.10
2019-01-02T05:47:10.995Z,3.00
2019-01-02T05:49:39.249Z,3.00
2019-01-02T05:52:07.483Z,3.10
2019-01-02T05:54:35.749Z,3.10
2019-01-02T05:57:03.998Z,3.10
2019-01-02T05:59:32.284Z,3.10
2019-01-02T06:02:00.569Z,3.20
2019-01-02T06:04:28.819Z,3.20
2019-01-02T06:06:57.068Z,2.90
2019-01-02T06:09:25.317Z,2.30
2019-01-02T06:11:53.568Z,1.80
2019-01-02T06:14:21.833Z,1.50
2019-01-02T06:16:50.082Z,1.20
2019-01-02T06:19:18.336Z,1.00
2019-01-02T06:21:46.581Z,1.00
2019-01-02T06:24:14.841Z,1.00
2019-01-02T06:26:43.403Z,1.00
2019-01-02T06:29:11.692Z,1.10
2019-01-02T06:31:39.967Z,1.10
2019-01-02T06:34:08.235Z,1.20
2019-01-02T06:36:36.470Z,1.30
2019-01-02T06:39:06.559Z,1.30
2019-01-02T06:41:34.807Z,1.30
2019-01-02T06:44:03.054Z,1.30
2019-01-02T06:46:31.292Z,1.30
2019-01-02T06:48:59.587Z,1.30
2019-01-02T06:51:27.834Z,1.30
2019-01-02T06:53:56.079Z,1.40
2019-01-02T06:56:24.354Z,1.50
2019-01-02T06:58:52.673Z,1.50
2019-01-02T07:01:21.683Z,1.50
2019-01-02T07:03:49.934Z,1.50
2019-01-02T07:06:18.186Z,1.60
2019-01-02T07:08:46.434Z,1.70
2019-01-02T07:11:14.672Z,1.80
2019-01-02T07:13:42.916Z,1.80
2019-01-02T07:16:11.252Z,1.90
2019-01-02T07:18:39.506Z,1.90
2019-01-02T07:21:07.748Z,1.90
2019-01-02T07:23:36.072Z,1.90
2019-01-02T07:26:04.328Z,2.00
2019-01-02T07:28:32.563Z,2.00
2019-01-02T07:31:00.834Z,2.10
2019-01-02T07:33:34.813Z,2.10
2019-01-02T07:36:27.031Z,2.10
2019-01-02T07:39:14.995Z,2.10
2019-01-02T07:41:58.493Z,2.10
2019-01-02T07:44:48.230Z,2.10
2019-01-02T07:47:49.478Z,2.10
2019-01-02T07:50:50.097Z,2.10
2019-01-02T07:53:30.609Z,2.10
2019-01-02T07:56:17.154Z,2.10
2019-01-02T07:58:59.993Z,2.10
2019-01-02T08:01:55.293Z,2.10
2019-01-02T08:04:41.826Z,2.20
2019-01-02T08:07:53.860Z,2.30
2019-01-02T08:10:25.360Z,2.30
2019-01-02T08:13:14.354Z,2.40
2019-01-02T08:16:03.765Z,2.40
2019-01-02T08:18:53.165Z,2.40
2019-01-02T08:21:48.883Z,2.40
2019-01-02T08:24:41.299Z,2.40
2019-01-02T08:27:18.579Z,2.40
2019-01-02T08:29:58.541Z,2.40
2019-01-02T08:32:33.150Z,2.40
2019-01-02T08:35:13.721Z,2.30
2019-01-02T08:38:18.575Z,2.30
2019-01-02T08:41:05.374Z,2.30
2019-01-02T08:43:39.780Z,2.30
2019-01-02T08:46:14.175Z,2.30
2019-01-02T08:49:00.561Z,2.30
2019-01-02T08:51:41.028Z,2.30
2019-01-02T08:54:30.532Z,2.20
2019-01-02T08:57:04.731Z,2.30
2019-01-02T08:59:44.881Z,2.30
2019-01-02T09:02:25.113Z,2.30
2019-01-02T09:05:14.761Z,2.30
2019-01-02T09:08:01.386Z,2.20
2019-01-02T09:10:47.973Z,2.30
2019-01-02T09:13:40.725Z,2.30
2019-01-02T09:16:36.216Z,2.30
2019-01-02T09:19:28.907Z,2.30
2019-01-02T09:22:33.670Z,2.30
2019-01-02T09:25:11.312Z,2.30
2019-01-02T09:28:00.717Z,2.30
2019-01-02T09:30:32.210Z,2.50
2019-01-02T09:33:18.817Z,2.50
2019-01-02T09:35:59.020Z,2.50
2019-01-02T09:38:51.624Z,2.70
2019-01-02T09:41:25.978Z,2.50
2019-01-02T09:44:27.693Z,2.50
2019-01-02T09:47:20.326Z,2.50
2019-01-02T09:50:28.058Z,2.60
2019-01-02T09:53:08.066Z,2.60
2019-01-02T09:56:01.703Z,2.60
2019-01-02T09:58:38.966Z,2.60
2019-01-02T10:01:25.452Z,2.70
2019-01-02T10:04:12.048Z,2.60
2019-01-02T10:07:01.871Z,2.70
2019-01-02T10:10:03.631Z,2.70
2019-01-02T10:12:37.894Z,2.60
2019-01-02T10:15:17.943Z,2.70
2019-01-02T10:17:58.063Z,2.70
2019-01-02T10:20:43.894Z,2.80
2019-01-02T10:23:43.219Z,2.80
2019-01-02T10:26:29.265Z,2.90
2019-01-02T10:29:21.699Z,3.00
2019-01-02T10:32:09.447Z,2.90
2019-01-02T10:35:13.784Z,2.90
2019-01-02T10:37:57.084Z,2.90
2019-01-02T10:40:46.321Z,3.00
2019-01-02T10:43:26.607Z,2.70
2019-01-02T10:46:13.266Z,2.60
2019-01-02T10:48:50.868Z,2.60
2019-01-02T10:51:38.595Z,2.60
2019-01-02T10:54:40.302Z,2.60
2019-01-02T10:57:26.451Z,2.70
2019-01-02T11:00:18.992Z,2.80
2019-01-02T11:03:05.139Z,2.90
2019-01-02T11:05:53.056Z,3.80
2019-01-02T11:08:32.124Z,3.20
2019-01-02T11:11:15.670Z,3.00
2019-01-02T11:14:05.217Z,2.90
2019-01-02T11:16:53.462Z,2.80
2019-01-02T11:19:34.537Z,2.80
2019-01-02T11:22:18.059Z,2.70
2019-01-02T11:25:04.373Z,2.80
2019-01-02T11:28:15.339Z,2.70
2019-01-02T11:31:15.535Z,2.70
2019-01-02T11:33:52.873Z,2.60
2019-01-02T11:36:24.429Z,2.30
2019-01-02T11:39:15.059Z,2.10
2019-01-02T11:41:55.766Z,2.10
2019-01-02T11:44:46.755Z,2.10
2019-01-02T11:47:16.102Z,1.90
2019-01-02T11:49:44.352Z,1.90
2019-01-02T11:52:12.597Z,1.80
2019-01-02T11:54:40.876Z,1.80
2019-01-02T11:57:09.127Z,1.60
2019-01-02T11:59:37.377Z,1.60
2019-01-02T12:02:05.625Z,1.70
2019-01-02T12:04:33.878Z,1.80
2019-01-02T12:07:02.109Z,2.00
2019-01-02T12:09:30.368Z,2.30
2019-01-02T12:11:58.613Z,2.40
2019-01-02T12:14:26.851Z,2.70
2019-01-02T12:16:55.088Z,2.60
2019-01-02T12:19:23.343Z,2.40
2019-01-02T12:21:52.366Z,2.20
2019-01-02T12:24:20.633Z,2.20
2019-01-02T12:26:48.942Z,2.20
2019-01-02T12:29:17.186Z,2.10
2019-01-02T12:31:45.445Z,2.20
2019-01-02T12:34:13.696Z,2.20
2019-01-02T12:36:41.927Z,2.40
2019-01-02T12:39:10.171Z,2.60
2019-01-02T12:41:38.411Z,2.80
2019-01-02T12:44:06.647Z,2.70
2019-01-02T12:46:34.896Z,2.60
2019-01-02T12:49:03.133Z,2.40
2019-01-02T12:51:31.395Z,2.30
2019-01-02T12:53:59.630Z,2.30
2019-01-02T12:56:27.890Z,2.20
2019-01-02T12:58:56.136Z,2.30
2019-01-02T13:01:27.191Z,2.30
2019-01-02T13:04:23.717Z,2.20
2019-01-02T13:07:03.960Z,2.20
2019-01-02T13:09:37.911Z,2.70
2019-01-02T13:12:12.267Z,3.40
2019-01-02T13:14:58.503Z,4.30
2019-01-02T13:17:44.392Z,4.10
2019-01-02T13:20:48.851Z,4.60
2019-01-02T13:23:32.499Z,4.90
2019-01-02T13:26:06.806Z,4.60
2019-01-02T13:28:58.773Z,4.90
2019-01-02T13:31:54.264Z,4.60
2019-01-02T13:34:43.821Z,4.50
2019-01-02T13:37:35.786Z,5.00
2019-01-02T13:40:31.242Z,5.30
2019-01-02T13:43:17.030Z,5.70
2019-01-02T13:45:48.885Z,5.10
2019-01-02T13:48:45.962Z,4.90
2019-01-02T13:51:14.546Z,4.60
2019-01-02T13:53:42.864Z,4.10
2019-01-02T13:56:12.782Z,3.60
2019-01-02T13:58:41.021Z,3.30
2019-01-02T14:01:09.262Z,3.20
2019-01-02T14:03:37.573Z,3.20
2019-01-02T14:06:05.813Z,2.90
2019-01-02T14:08:34.066Z,2.80
2019-01-02T14:11:02.320Z,2.60
2019-01-02T14:13:30.640Z,2.50
2019-01-02T14:15:58.888Z,2.40
2019-01-02T14:18:27.133Z,2.40
2019-01-02T14:20:55.367Z,2.40
2019-01-02T14:23:23.620Z,2.50
2019-01-02T14:25:52.671Z,2.50
2019-01-02T14:28:20.930Z,2.60
2019-01-02T14:30:49.240Z,2.60
2019-01-02T14:33:17.489Z,2.80
2019-01-02T14:35:45.740Z,3.00
2019-01-02T14:38:13.980Z,2.90
2019-01-02T14:40:42.237Z,2.80
2019-01-02T14:43:10.484Z,2.70
2019-01-02T14:45:38.723Z,2.60
2019-01-02T14:48:06.992Z,2.50
2019-01-02T14:50:35.230Z,2.40
2019-01-02T14:53:03.467Z,2.30
2019-01-02T14:55:31.712Z,2.30
2019-01-02T14:57:59.981Z,2.10
2019-01-02T15:00:28.213Z,2.10
2019-01-02T15:02:56.480Z,2.00
2019-01-02T15:05:25.049Z,1.90
2019-01-02T15:07:53.289Z,1.90
2019-01-02T15:10:21.788Z,1.80
2019-01-02T15:12:50.075Z,1.70
2019-01-02T15:15:18.320Z,1.70
2019-01-02T15:17:46.565Z,1.60
2019-01-02T15:20:14.816Z,1.60
2019-01-02T15:22:44.104Z,1.50
2019-01-02T15:25:12.478Z,1.50
2019-01-02T15:27:40.712Z,1.60
2019-01-02T15:30:10.407Z,1.60
2019-01-02T15:32:38.651Z,1.60
2019-01-02T15:35:07.483Z,1.60
2019-01-02T15:37:35.766Z,1.60
2019-01-02T15:40:06.829Z,1.60
2019-01-02T15:42:35.138Z,1.60
2019-01-02T15:45:03.417Z,1.60
2019-01-02T15:47:31.752Z,1.60
2019-01-02T15:50:00.015Z,1.60
2019-01-02T15:52:30.972Z,1.50
2019-01-02T15:54:59.215Z,1.50
2019-01-02T15:57:27.454Z,1.50
2019-01-02T15:59:55.696Z,1.50
2019-01-02T16:02:23.929Z,1.50
2019-01-02T16:04:52.846Z,1.40
2019-01-02T16:07:21.090Z,1.50
2019-01-02T16:10:09.329Z,1.50
2019-01-02T16:12:37.619Z,1.40
2019-01-02T16:15:06.632Z,1.40
2019-01-02T16:17:34.868Z,1.50
2019-01-02T16:20:03.121Z,1.50
2019-01-02T16:22:31.393Z,1.40
2019-01-02T16:24:59.652Z,1.40
2019-01-02T16:27:27.900Z,1.40
2019-01-02T16:29:56.142Z,1.30
2019-01-02T16:32:24.419Z,1.20
2019-01-02T16:34:52.911Z,1.10
2019-01-02T16:37:21.191Z,1.10
2019-01-02T16:39:49.440Z,1.00
2019-01-02T16:42:17.691Z,1.10
2019-01-02T16:44:45.927Z,1.00
2019-01-02T16:47:14.201Z,1.00
2019-01-02T16:49:42.458Z,0.90
2019-01-02T16:52:10.696Z,0.80
2019-01-02T16:54:38.973Z,0.80
2019-01-02T16:57:07.225Z,0.70
2019-01-02T16:59:35.493Z,0.60
2019-01-02T17:02:03.736Z,0.60
2019-01-02T17:04:31.985Z,0.50
2019-01-02T17:07:00.243Z,0.50
2019-01-02T17:09:28.490Z,0.50
2019-01-02T17:11:56.731Z,0.50
2019-01-02T17:14:25.023Z,0.50
2019-01-02T17:16:53.282Z,0.40
2019-01-02T17:19:21.515Z,0.40
2019-01-02T17:21:49.787Z,0.50
2019-01-02T17:24:18.027Z,0.50
2019-01-02T17:26:46.281Z,0.60
2019-01-02T17:29:14.592Z,0.60
2019-01-02T17:31:42.824Z,0.60
2019-01-02T17:34:11.135Z,0.60
2019-01-02T17:36:39.375Z,0.60
2019-01-02T17:39:07.729Z,0.70
2019-01-02T17:41:36.011Z,0.70
2019-01-02T17:44:04.267Z,0.70
2019-01-02T17:46:32.511Z,0.70
2019-01-02T17:49:00.782Z,0.70
2019-01-02T17:51:29.019Z,0.70
2019-01-02T17:53:57.288Z,0.70
2019-01-02T17:56:25.525Z,0.70
2019-01-02T17:58:53.852Z,0.70
2019-01-02T18:01:23.097Z,0.70
2019-01-02T18:03:51.354Z,0.60
2019-01-02T18:06:19.611Z,0.60
2019-01-02T18:08:47.906Z,0.60
2019-01-02T18:11:16.164Z,0.60
2019-01-02T18:13:44.415Z,0.60
2019-01-02T18:16:12.668Z,0.60
2019-01-02T18:18:40.987Z,0.60
2019-01-02T18:21:09.236Z,0.60
2019-01-02T18:23:37.480Z,0.60
2019-01-02T18:26:05.727Z,0.60
2019-01-02T18:28:33.989Z,0.50
2019-01-02T18:31:02.233Z,0.50
2019-01-02T18:33:30.482Z,0.50
2019-01-02T18:35:58.753Z,0.50
2019-01-02T18:38:27.005Z,0.50
2019-01-02T18:40:55.232Z,0.60
2019-01-02T18:43:23.479Z,0.60
2019-01-02T18:45:51.732Z,0.60
2019-01-02T18:48:20.018Z,0.60
2019-01-02T18:50:48.300Z,0.60
2019-01-02T18:53:16.536Z,0.70
2019-01-02T18:55:44.796Z,2.70
2019-01-02T18:58:13.031Z,1.90
2019-01-02T19:00:41.280Z,1.50
2019-01-02T19:03:09.644Z,1.10
2019-01-02T19:05:37.883Z,0.90
2019-01-02T19:08:06.397Z,0.90
2019-01-02T19:10:34.662Z,0.80
2019-01-02T19:13:02.907Z,0.80
2019-01-02T19:15:31.209Z,0.80
2019-01-02T19:17:59.459Z,0.80
2019-01-02T19:20:27.708Z,0.90
2019-01-02T19:22:55.935Z,0.90
2019-01-02T19:25:24.207Z,0.90
2019-01-02T19:27:53.248Z,0.90
2019-01-02T19:30:21.522Z,0.90
2019-01-02T19:32:49.816Z,0.90
2019-01-02T19:35:18.088Z,0.90
2019-01-02T19:37:46.342Z,0.90
2019-01-02T19:40:14.583Z,0.90
2019-01-02T19:42:42.821Z,0.90
2019-01-02T19:45:11.082Z,0.90
2019-01-02T19:47:39.323Z,0.80
2019-01-02T19:50:08.416Z,0.80
2019-01-02T19:52:36.651Z,0.80
2019-01-02T19:55:06.737Z,0.80
2019-01-02T19:57:34.984Z,0.70
2019-01-02T20:00:03.987Z,0.70
2019-01-02T20:02:32.240Z,0.70
2019-01-02T20:05:01.494Z,0.70
2019-01-02T20:07:29.775Z,0.60
2019-01-02T20:09:58.021Z,0.60
2019-01-02T20:12:26.272Z,0.50
2019-01-02T20:14:54.505Z,0.60
2019-01-02T20:17:23.384Z,0.50
2019-01-02T20:19:51.615Z,0.50
2019-01-02T20:22:19.889Z,0.50
2019-01-02T20:24:48.125Z,0.50
2019-01-02T20:27:16.379Z,0.50
2019-01-02T20:29:44.611Z,0.40
2019-01-02T20:32:12.856Z,0.40
2019-01-02T20:34:41.088Z,0.50
2019-01-02T20:37:09.335Z,0.50
2019-01-02T20:39:37.576Z,0.50
2019-01-02T20:42:05.846Z,0.50
2019-01-02T20:44:34.101Z,0.40
2019-01-02T20:47:02.363Z,0.40
2019-01-02T20:49:30.593Z,0.40
2019-01-02T20:51:58.831Z,0.40
2019-01-02T20:54:27.102Z,0.40
2019-01-02T20:56:55.358Z,0.30
2019-01-02T20:59:23.617Z,0.30
2019-01-02T21:01:51.857Z,0.30
2019-01-02T21:04:20.107Z,0.30
2019-01-02T21:06:48.353Z,0.20
2019-01-02T21:09:16.624Z,0.20
2019-01-02T21:11:44.844Z,0.20
2019-01-02T21:14:13.100Z,0.20
2019-01-02T21:16:43.039Z,0.10
2019-01-02T21:19:11.292Z,0.10
2019-01-02T21:21:40.196Z,0.00
2019-01-02T21:24:08.439Z,0.00
2019-01-02T21:26:36.681Z,0.00
2019-01-02T21:29:04.941Z,0.00
2019-01-02T21:31:33.180Z,-0.10
2019-01-02T21:34:02.630Z,-0.10
2019-01-02T21:36:30.955Z,-0.10
2019-01-02T21:38:59.231Z,-0.10
2019-01-02T21:41:27.468Z,-0.10
2019-01-02T21:43:55.737Z,-0.10
2019-01-02T21:46:23.973Z,-0.20
2019-01-02T21:48:52.233Z,-0.20
2019-01-02T21:51:20.471Z,-0.10
2019-01-02T21:53:48.729Z,-0.20
2019-01-02T21:56:16.966Z,-0.20
2019-01-02T21:58:46.325Z,-0.20
2019-01-02T22:01:14.570Z,-0.20
2019-01-02T22:03:42.844Z,-0.20
2019-01-02T22:06:11.080Z,-0.20
2019-01-02T22:08:39.342Z,-0.20
2019-01-02T22:11:07.583Z,-0.20
2019-01-02T22:13:35.828Z,-0.20
2019-01-02T22:16:04.083Z,-0.10
2019-01-02T22:18:32.336Z,-0.10
2019-01-02T22:21:00.585Z,-0.10
2019-01-02T22:23:28.823Z,-0.20
2019-01-02T22:25:57.067Z,-0.20
2019-01-02T22:28:25.316Z,-0.20
2019-01-02T22:30:53.657Z,-0.20
2019-01-02T22:33:21.928Z,-0.10
2019-01-02T22:35:50.227Z,-0.20
2019-01-02T22:38:18.492Z,-0.20
2019-01-02T22:40:46.820Z,-0.10
2019-01-02T22:43:15.076Z,-0.10
2019-01-02T22:45:43.325Z,-0.20
2019-01-02T22:48:11.560Z,-0.10
2019-01-02T22:50:39.891Z,-0.20
2019-01-02T22:53:08.268Z,-0.20
2019-01-02T22:55:36.513Z,-0.20
2019-01-02T22:58:04.764Z,-0.20
2019-01-02T23:00:46.951Z,-0.20
2019-01-02T23:03:22.523Z,-0.30
2019-01-02T23:06:08.773Z,-0.20
2019-01-02T23:08:56.671Z,-0.30
2019-01-02T23:11:35.900Z,-0.30
2019-01-02T23:14:11.808Z,-0.30
2019-01-02T23:16:50.617Z,-0.30
2019-01-02T23:19:23.466Z,-0.40
2019-01-02T23:21:59.300Z,-0.40
2019-01-02T23:24:38.073Z,-0.40
2019-01-02T23:27:19.767Z,-0.50
2019-01-02T23:30:07.924Z,-0.50
2019-01-02T23:32:55.882Z,-0.60
2019-01-02T23:35:25.762Z,-0.60
2019-01-02T23:38:12.131Z,-0.60
2019-01-02T23:40:58.192Z,-0.70
2019-01-02T23:43:30.794Z,-0.80
2019-01-02T23:48:52.377Z,-0.90
2019-01-02T23:51:25.249Z,-1.00
2019-01-02T23:54:10.759Z,-1.00
2019-01-02T23:56:49.368Z,-1.10
2019-01-02T23:59:25.163Z,-1.10
